Marco Island, Florida
Current Conditions -  °F | °C
As of 3:35 PM on Friday 21 Nov 2014 (Local Time) from KMKY Reporting Station
Broken Clouds Broken Clouds  
Wind Chill: 70°   Ceiling: 4200
Heat Index: 70°   Visibility: 10mi
Dew Point: 64°   Wind: 14mph
Humidity: 83%   Direction: 60°ENE
Pressure: 30.13"   Gusts: 25mph
Location:  25.97°N, 81.73°W
Report Text: KMKY 212035Z AUTO 06012G22KT 10SM BKN042 BKN095 21/18 A3013 RMK AO1
Loading
Personal Weather Stations






























Interactive Weather Map New forecast layout! Learn more

10-Day Weather Forecast

Advertisements
Track Severe Weather on mobile